Time;durP1;ratioP1;P1;durP2;ratioP2;P2;SDS_P1;SDS_P2;PMS_P1;PMS_P2;Temp;Humidity;BMP_temperature;BMP_pressure;BME280_temperature;BME280_humidity;BME280_pressure;Samples;Min_cycle;Max_cycle;Signal;HPM_P1;HPM_P2
2022/11/24 00:00:46;;;;;;;6.93;1.17;;;6.40;99.90;;;;;;4982878;28;20046;-95
2022/11/24 00:03:12;;;;;;;5.28;1.10;;;6.30;99.90;;;;;;4979372;28;20022;-96
2022/11/24 00:05:38;;;;;;;11.38;1.95;;;6.30;99.90;;;;;;4996992;28;20019;-95
2022/11/24 00:08:04;;;;;;;8.07;1.52;;;6.30;99.90;;;;;;4999868;28;20066;-95
2022/11/24 00:10:30;;;;;;;8.75;2.40;;;6.30;99.90;;;;;;5011209;28;20098;-95
2022/11/24 00:12:56;;;;;;;6.70;1.00;;;6.40;99.90;;;;;;5012455;28;20026;-93
2022/11/24 00:15:21;;;;;;;5.55;0.88;;;6.30;99.90;;;;;;4985919;28;20077;-92
2022/11/24 00:17:50;;;;;;;10.70;1.08;;;6.30;99.90;;;;;;4992990;28;20106;-90
2022/11/24 00:20:16;;;;;;;10.70;1.70;;;6.30;99.90;;;;;;4988626;28;20711;-93
2022/11/24 00:22:41;;;;;;;10.13;1.00;;;6.30;99.90;;;;;;5014331;28;20015;-91
2022/11/24 00:25:07;;;;;;;7.40;1.40;;;6.40;99.90;;;;;;4999586;28;20027;-93
2022/11/24 00:27:33;;;;;;;5.32;1.15;;;6.40;99.90;;;;;;5015449;28;20030;-94
2022/11/24 00:29:59;;;;;;;7.93;1.15;;;6.40;99.90;;;;;;4998583;28;20030;-95
2022/11/24 00:32:28;;;;;;;4.40;1.75;;;6.40;99.90;;;;;;4993636;28;20042;-92
2022/11/24 00:34:54;;;;;;;9.10;1.20;;;6.40;99.90;;;;;;4997891;28;20018;-94
2022/11/24 00:37:27;;;;;;;7.25;1.90;;;6.50;99.90;;;;;;5008685;28;20098;-95
2022/11/24 00:39:57;;;;;;;8.15;1.08;;;6.40;99.90;;;;;;4990904;28;20043;-95
2022/11/24 00:42:23;;;;;;;9.32;1.33;;;6.40;99.90;;;;;;4977818;28;20026;-94
2022/11/24 00:44:49;;;;;;;7.07;1.00;;;6.40;99.90;;;;;;4996628;28;20021;-95
2022/11/24 00:47:14;;;;;;;8.15;1.30;;;6.40;99.90;;;;;;4998924;28;20021;-94
2022/11/24 00:49:40;;;;;;;6.80;1.30;;;6.40;99.90;;;;;;5015960;28;20022;-95
2022/11/24 00:52:06;;;;;;;5.13;0.75;;;6.40;99.90;;;;;;5014086;28;20045;-92
2022/11/24 00:54:31;;;;;;;4.05;1.38;;;6.40;99.90;;;;;;5013507;28;20026;-93
2022/11/24 00:56:57;;;;;;;7.70;1.10;;;6.40;99.90;;;;;;4997810;28;20054;-95
2022/11/24 00:59:23;;;;;;;6.70;1.33;;;6.40;99.90;;;;;;4994192;28;20034;-96
2022/11/24 01:01:48;;;;;;;7.93;0.93;;;6.30;99.90;;;;;;5013742;28;20018;-93
2022/11/24 01:04:14;;;;;;;10.35;1.63;;;6.40;99.90;;;;;;4998358;28;20015;-92
2022/11/24 01:06:39;;;;;;;7.47;1.20;;;6.40;99.90;;;;;;4999363;28;20053;-95
2022/11/24 01:09:05;;;;;;;7.55;1.35;;;6.40;99.90;;;;;;4998566;28;20030;-94
2022/11/24 01:14:19;;;;;;;11.23;1.17;;;6.40;99.90;;;;;;5016630;28;20061;-96
2022/11/24 01:16:45;;;;;;;3.75;1.08;;;6.40;99.90;;;;;;4997958;28;20026;-93
2022/11/24 01:19:10;;;;;;;8.85;1.27;;;6.40;99.90;;;;;;5015712;28;20030;-94
2022/11/24 01:21:39;;;;;;;7.07;1.13;;;6.40;99.90;;;;;;5016145;28;20014;-93
2022/11/24 01:24:05;;;;;;;5.47;1.00;;;6.40;99.90;;;;;;5013971;28;20034;-95
2022/11/24 01:26:30;;;;;;;4.95;1.75;;;6.40;99.90;;;;;;4999442;28;20061;-94
2022/11/24 01:28:57;;;;;;;7.05;1.13;;;6.40;99.90;;;;;;4999087;28;20019;-91
2022/11/24 01:31:24;;;;;;;11.48;1.40;;;6.40;99.90;;;;;;4997709;28;20017;-95
2022/11/24 01:33:51;;;;;;;4.35;0.60;;;6.40;99.90;;;;;;4997871;28;20014;-96
2022/11/24 01:36:22;;;;;;;8.13;1.30;;;6.40;99.90;;;;;;5014494;28;20038;-91
2022/11/24 01:38:48;;;;;;;4.50;0.88;;;6.40;99.90;;;;;;5016426;28;20049;-95
2022/11/24 01:41:20;;;;;;;8.57;1.02;;;6.40;99.90;;;;;;4999436;28;20011;-93
2022/11/24 01:43:46;;;;;;;13.05;1.52;;;6.30;99.90;;;;;;4999553;28;20045;-92
2022/11/24 01:46:51;;;;;;;4.97;0.90;;;6.30;99.90;;;;;;5018184;28;20049;-95
2022/11/24 01:49:21;;;;;;;3.22;1.08;;;6.30;99.90;;;;;;5021039;28;20042;-91
2022/11/24 01:51:56;;;;;;;4.25;1.20;;;6.30;99.90;;;;;;5021693;28;20029;-92
2022/11/24 01:54:34;;;;;;;9.25;1.25;;;6.30;99.90;;;;;;5003798;28;20041;-92
2022/11/24 01:57:08;;;;;;;10.05;2.67;;;6.30;99.90;;;;;;5016086;28;20030;-94
2022/11/24 01:59:37;;;;;;;9.30;1.35;;;6.20;99.90;;;;;;4998820;28;20043;-92
2022/11/24 02:02:03;;;;;;;7.43;1.40;;;6.30;99.90;;;;;;5017320;28;20027;-90
2022/11/24 02:04:32;;;;;;;10.27;1.70;;;6.20;99.90;;;;;;4996698;28;20022;-95
2022/11/24 02:07:00;;;;;;;9.90;1.38;;;6.30;99.90;;;;;;4999018;28;20061;-92
2022/11/24 02:09:33;;;;;;;9.52;1.42;;;6.30;99.90;;;;;;5002734;28;20030;-94
2022/11/24 02:12:00;;;;;;;9.20;1.40;;;6.30;99.90;;;;;;4998442;28;20061;-90
2022/11/24 02:14:26;;;;;;;14.27;1.58;;;6.30;99.90;;;;;;5018576;28;20030;-89
2022/11/24 02:16:55;;;;;;;12.88;1.80;;;6.30;99.90;;;;;;5002150;28;20065;-93
2022/11/24 02:19:39;;;;;;;9.20;1.88;;;6.30;99.90;;;;;;5001793;28;20026;-94
2022/11/24 02:22:10;;;;;;;9.43;1.25;;;6.30;99.90;;;;;;5002314;28;20025;-90
2022/11/24 02:24:59;;;;;;;7.57;1.00;;;6.30;99.90;;;;;;5002518;28;20118;-91
2022/11/24 02:27:25;;;;;;;11.15;1.70;;;6.30;99.90;;;;;;5000066;28;20106;-91
2022/11/24 02:29:54;;;;;;;8.32;1.13;;;6.40;99.90;;;;;;5019687;28;20022;-92
2022/11/24 02:32:23;;;;;;;10.35;1.88;;;6.40;99.90;;;;;;5019117;28;20029;-91
2022/11/24 02:34:48;;;;;;;10.35;1.60;;;6.40;99.90;;;;;;5002613;28;20010;-94
2022/11/24 02:37:14;;;;;;;15.38;2.20;;;6.40;99.90;;;;;;5002563;28;20024;-93
2022/11/24 02:39:42;;;;;;;14.35;2.15;;;6.40;99.90;;;;;;5001717;28;20045;-93
2022/11/24 02:42:12;;;;;;;9.98;1.83;;;6.40;99.90;;;;;;5018188;28;20030;-94
2022/11/24 02:44:45;;;;;;;16.90;1.85;;;6.40;99.90;;;;;;5000581;28;20018;-94
2022/11/24 02:47:12;;;;;;;15.07;2.45;;;6.40;99.90;;;;;;5000188;28;20022;-95
2022/11/24 02:49:38;;;;;;;18.17;2.03;;;6.30;99.90;;;;;;5003506;28;20054;-96
2022/11/24 02:52:04;;;;;;;20.08;2.53;;;6.30;99.90;;;;;;5002358;28;20034;-92
2022/11/24 02:54:31;;;;;;;7.60;2.13;;;6.30;99.90;;;;;;5017369;28;20045;-95
2022/11/24 02:56:56;;;;;;;21.50;2.53;;;6.30;99.90;;;;;;5000188;28;20106;-95
2022/11/24 02:59:22;;;;;;;13.00;2.22;;;6.30;99.90;;;;;;5015300;28;20038;-95
2022/11/24 03:01:48;;;;;;;19.20;2.00;;;6.30;99.90;;;;;;4997510;28;20026;-95
2022/11/24 03:04:17;;;;;;;15.02;2.10;;;6.30;99.90;;;;;;5000498;28;20033;-95
2022/11/24 03:06:42;;;;;;;13.65;1.52;;;6.30;99.90;;;;;;4998966;28;20046;-96
2022/11/24 03:09:10;;;;;;;13.57;2.13;;;6.30;99.90;;;;;;5001972;28;20119;-96
2022/11/24 03:11:39;;;;;;;14.20;2.00;;;6.30;99.90;;;;;;4995151;28;20032;-95
2022/11/24 03:14:05;;;;;;;12.98;1.60;;;6.30;99.90;;;;;;4994304;28;20038;-95
2022/11/24 03:16:32;;;;;;;12.07;1.45;;;6.30;99.90;;;;;;5001356;28;20034;-95
2022/11/24 03:18:57;;;;;;;24.15;2.60;;;6.30;99.90;;;;;;4998642;28;20042;-94
2022/11/24 03:21:23;;;;;;;13.80;1.85;;;6.30;99.90;;;;;;4995696;28;20073;-95
2022/11/24 03:23:49;;;;;;;12.20;1.67;;;6.30;99.90;;;;;;4997654;28;20057;-95
2022/11/24 03:26:17;;;;;;;16.10;2.33;;;6.30;99.90;;;;;;4988690;28;20098;-95
2022/11/24 03:28:43;;;;;;;15.93;1.90;;;6.30;99.90;;;;;;5014940;28;20103;-95
2022/11/24 03:31:15;;;;;;;15.35;2.65;;;6.30;99.90;;;;;;4996424;28;20011;-95
2022/11/24 03:33:40;;;;;;;20.20;3.03;;;6.30;99.90;;;;;;4995252;28;20010;-96
2022/11/24 03:36:07;;;;;;;15.18;2.00;;;6.30;99.90;;;;;;5014749;28;20101;-96
2022/11/24 03:38:33;;;;;;;11.30;2.60;;;6.30;99.90;;;;;;4999856;28;20081;-95
2022/11/24 03:40:58;;;;;;;13.82;2.47;;;6.30;99.90;;;;;;5016607;28;20042;-91
2022/11/24 03:43:24;;;;;;;11.50;2.20;;;6.40;99.90;;;;;;5000057;28;20023;-94
2022/11/24 03:45:50;;;;;;;17.73;2.03;;;6.30;99.90;;;;;;5003303;28;20026;-89
2022/11/24 03:48:17;;;;;;;15.20;2.35;;;6.40;99.90;;;;;;5019234;28;20026;-95
2022/11/24 03:50:51;;;;;;;20.63;1.92;;;6.30;99.90;;;;;;5012492;28;20002;-91
2022/11/24 03:53:16;;;;;;;13.23;2.80;;;6.40;99.90;;;;;;5013620;28;20041;-96
2022/11/24 03:55:42;;;;;;;15.25;3.00;;;6.30;99.90;;;;;;5013980;28;20010;-94
2022/11/24 03:58:08;;;;;;;12.82;1.95;;;6.30;99.90;;;;;;4998812;28;20054;-94
2022/11/24 04:00:33;;;;;;;20.83;1.98;;;6.30;99.90;;;;;;5016651;28;20030;-93
2022/11/24 04:02:59;;;;;;;15.40;2.70;;;6.30;99.90;;;;;;4996249;28;20037;-96
2022/11/24 04:05:25;;;;;;;17.40;2.35;;;6.20;99.90;;;;;;5018600;28;20081;-91
2022/11/24 04:07:56;;;;;;;16.70;2.63;;;6.20;99.90;;;;;;4999741;28;20046;-90
2022/11/24 04:10:22;;;;;;;14.65;2.03;;;6.20;99.90;;;;;;4981035;28;20203;-93
2022/11/24 04:12:48;;;;;;;15.93;3.03;;;6.10;99.90;;;;;;4980836;28;20042;-92
2022/11/24 04:15:19;;;;;;;16.45;2.10;;;6.10;99.90;;;;;;4979598;28;20061;-90
2022/11/24 04:17:46;;;;;;;12.27;1.63;;;6.10;99.90;;;;;;4981536;28;20091;-96
2022/11/24 04:20:12;;;;;;;7.03;1.50;;;6.10;99.90;;;;;;4996958;28;20030;-92
2022/11/24 04:22:38;;;;;;;16.73;2.17;;;6.10;99.90;;;;;;4997693;28;20559;-94
2022/11/24 04:25:05;;;;;;;13.07;1.65;;;6.10;99.90;;;;;;4981460;28;20022;-90
2022/11/24 04:27:35;;;;;;;18.88;2.15;;;6.00;99.90;;;;;;4995998;28;20015;-96
2022/11/24 04:30:02;;;;;;;10.38;1.65;;;6.00;99.90;;;;;;4998051;28;20043;-90
2022/11/24 04:32:27;;;;;;;11.30;1.48;;;6.00;99.90;;;;;;4995597;28;20018;-92
2022/11/24 04:34:53;;;;;;;15.43;1.60;;;6.00;99.90;;;;;;4982296;28;20023;-89
2022/11/24 04:37:19;;;;;;;11.52;1.63;;;6.00;99.90;;;;;;4999104;28;20017;-90
2022/11/24 04:39:45;;;;;;;9.40;1.55;;;5.90;99.90;;;;;;4980338;28;20042;-93
2022/11/24 04:42:11;;;;;;;16.23;3.33;;;5.90;99.90;;;;;;4996405;28;20030;-93
2022/11/24 04:44:39;;;;;;;15.90;2.15;;;6.00;99.90;;;;;;4997760;28;20023;-92
2022/11/24 04:47:04;;;;;;;15.57;1.88;;;6.00;99.90;;;;;;4981227;28;20030;-90
2022/11/24 04:49:30;;;;;;;13.18;1.58;;;5.90;99.90;;;;;;4982117;28;20018;-89
2022/11/24 04:51:56;;;;;;;10.40;2.22;;;5.90;99.90;;;;;;4981651;28;20027;-91
2022/11/24 04:54:22;;;;;;;15.10;2.22;;;5.90;99.90;;;;;;4997398;28;20023;-96
2022/11/24 04:56:51;;;;;;;14.07;1.90;;;5.90;99.90;;;;;;4998430;28;20057;-91
2022/11/24 04:59:18;;;;;;;16.20;1.85;;;5.90;99.90;;;;;;4998145;28;20022;-92
2022/11/24 05:01:45;;;;;;;6.97;1.40;;;5.90;99.90;;;;;;4996653;28;20038;-93
2022/11/24 05:04:12;;;;;;;9.20;1.40;;;5.90;99.90;;;;;;4976612;28;20039;-94
2022/11/24 05:06:38;;;;;;;11.93;2.00;;;5.90;99.90;;;;;;4979361;28;20043;-96
2022/11/24 05:09:05;;;;;;;10.23;1.30;;;5.90;99.90;;;;;;4994380;28;20027;-95
2022/11/24 05:11:31;;;;;;;13.05;2.30;;;5.90;99.90;;;;;;4995666;28;20035;-93
2022/11/24 05:13:57;;;;;;;8.45;1.40;;;5.90;99.90;;;;;;4990115;28;20055;-92
2022/11/24 05:16:22;;;;;;;12.88;1.70;;;5.90;99.90;;;;;;4977276;28;20022;-94
2022/11/24 05:18:48;;;;;;;11.63;1.70;;;5.80;99.90;;;;;;4974894;28;20039;-94
2022/11/24 05:21:14;;;;;;;18.05;1.80;;;5.80;99.90;;;;;;4975308;28;20031;-95
2022/11/24 05:23:40;;;;;;;10.43;1.73;;;5.80;99.90;;;;;;4994026;28;20030;-93
2022/11/24 05:26:06;;;;;;;9.77;2.33;;;5.80;99.90;;;;;;4983336;28;20038;-92
2022/11/24 05:28:31;;;;;;;14.30;2.00;;;5.80;99.90;;;;;;4995118;28;20015;-94
2022/11/24 05:31:01;;;;;;;10.80;1.55;;;5.80;99.90;;;;;;4975320;28;20089;-94
2022/11/24 05:33:28;;;;;;;20.70;2.10;;;5.80;99.90;;;;;;4992279;28;20058;-96
2022/11/24 05:35:55;;;;;;;15.10;2.22;;;5.80;99.90;;;;;;4993695;28;20421;-94
2022/11/24 05:38:22;;;;;;;10.55;1.40;;;5.80;99.90;;;;;;4972278;28;20090;-94
2022/11/24 05:40:48;;;;;;;12.30;1.58;;;5.80;99.90;;;;;;4989550;28;20041;-95
2022/11/24 05:43:15;;;;;;;13.38;2.22;;;5.90;99.90;;;;;;4971319;28;20027;-93
2022/11/24 05:45:42;;;;;;;25.55;2.72;;;6.00;99.90;;;;;;4990902;28;20041;-94
2022/11/24 05:48:11;;;;;;;13.23;1.92;;;6.00;99.90;;;;;;4989853;28;20037;-93
2022/11/24 05:50:37;;;;;;;15.65;2.63;;;6.00;99.90;;;;;;4992701;28;20019;-96
2022/11/24 05:53:05;;;;;;;17.00;2.15;;;6.00;99.90;;;;;;4995965;28;20034;-92
2022/11/24 05:55:31;;;;;;;15.88;1.92;;;6.00;99.90;;;;;;4978360;28;20029;-94
2022/11/24 05:58:03;;;;;;;21.08;3.00;;;6.00;99.90;;;;;;4977293;28;20031;-93
2022/11/24 06:00:30;;;;;;;21.35;3.75;;;6.10;99.90;;;;;;4977916;28;20043;-93
2022/11/24 06:02:57;;;;;;;19.08;3.40;;;6.10;99.90;;;;;;4974009;28;20037;-94
2022/11/24 06:05:24;;;;;;;12.55;2.10;;;6.20;99.90;;;;;;4978512;28;20063;-96
2022/11/24 06:07:52;;;;;;;16.27;2.28;;;6.20;99.90;;;;;;4978574;28;20065;-94
2022/11/24 06:10:20;;;;;;;15.27;2.92;;;6.20;99.90;;;;;;4982325;28;20037;-95
2022/11/24 06:12:49;;;;;;;21.10;2.25;;;6.20;99.90;;;;;;4983268;28;20042;-96
2022/11/24 06:15:16;;;;;;;18.13;2.83;;;6.20;99.90;;;;;;5015252;28;20058;-96
2022/11/24 06:17:41;;;;;;;16.02;2.28;;;6.30;99.90;;;;;;4993334;28;20004;-96
2022/11/24 06:20:09;;;;;;;19.05;2.47;;;6.30;99.90;;;;;;4998615;28;20039;-95
2022/11/24 06:22:34;;;;;;;22.90;2.92;;;6.30;99.90;;;;;;4993920;28;20030;-93
2022/11/24 06:25:00;;;;;;;22.50;2.65;;;6.40;99.90;;;;;;4992187;28;20440;-96
2022/11/24 06:27:26;;;;;;;19.77;2.83;;;6.40;99.90;;;;;;4995449;28;20026;-96
2022/11/24 06:29:52;;;;;;;19.98;2.70;;;6.30;99.90;;;;;;4990603;28;20046;-95
2022/11/24 06:32:18;;;;;;;23.58;2.67;;;6.40;99.90;;;;;;4985165;28;20062;-95
2022/11/24 06:34:44;;;;;;;24.60;2.63;;;6.30;99.90;;;;;;4977749;28;20031;-93
2022/11/24 06:37:13;;;;;;;17.73;2.72;;;6.30;99.90;;;;;;4976040;28;20524;-95
2022/11/24 06:39:38;;;;;;;16.40;2.45;;;6.30;99.90;;;;;;4979995;28;20042;-96
2022/11/24 06:42:05;;;;;;;24.13;2.83;;;6.20;99.90;;;;;;4979539;28;20027;-95
2022/11/24 06:44:31;;;;;;;25.42;3.42;;;6.20;99.90;;;;;;4998488;28;20437;-96
2022/11/24 06:46:59;;;;;;;27.13;4.07;;;6.10;99.90;;;;;;4992566;28;20041;-96
2022/11/24 06:49:28;;;;;;;27.58;4.72;;;6.10;99.90;;;;;;4973854;28;20034;-95
2022/11/24 06:51:54;;;;;;;17.05;2.42;;;6.10;99.90;;;;;;4976191;28;20053;-93
2022/11/24 06:54:20;;;;;;;32.67;3.63;;;6.10;99.90;;;;;;4980366;28;20041;-95
2022/11/24 06:56:46;;;;;;;20.10;2.72;;;6.00;99.90;;;;;;4979839;28;20031;-95
2022/11/24 06:59:22;;;;;;;22.77;3.22;;;6.00;99.90;;;;;;4977911;28;20058;-96
2022/11/24 07:01:51;;;;;;;19.48;3.15;;;6.00;99.90;;;;;;4974529;28;20019;-94
2022/11/24 07:04:17;;;;;;;37.63;5.05;;;6.00;99.90;;;;;;4980503;28;20054;-96
2022/11/24 07:06:43;;;;;;;19.75;2.08;;;5.90;99.90;;;;;;4979870;28;20042;-94
2022/11/24 07:09:11;;;;;;;21.08;2.72;;;5.90;99.90;;;;;;4989377;28;20053;-94
2022/11/24 07:11:37;;;;;;;21.63;2.55;;;5.90;99.90;;;;;;4983084;28;20077;-95
2022/11/24 07:14:04;;;;;;;22.92;2.45;;;5.80;99.90;;;;;;4991546;28;20050;-93
2022/11/24 07:16:30;;;;;;;22.90;3.05;;;5.80;99.90;;;;;;4997221;28;20042;-92
2022/11/24 07:18:57;;;;;;;16.65;2.85;;;5.70;99.90;;;;;;5000331;28;20031;-93
2022/11/24 07:21:37;;;;;;;27.40;3.40;;;5.70;99.90;;;;;;4999308;28;20038;-94
2022/11/24 07:24:05;;;;;;;27.13;2.85;;;5.70;99.90;;;;;;5008107;28;20051;-93
2022/11/24 07:26:35;;;;;;;28.85;3.08;;;5.70;99.90;;;;;;5018665;28;20041;-96
2022/11/24 07:29:02;;;;;;;;;;;5.70;99.90;;;;;;5000825;28;20172;-92
2022/11/24 07:31:27;;;;;;;19.80;2.03;;;5.60;99.90;;;;;;4998404;28;19916;-90
2022/11/24 07:33:54;;;;;;;20.52;2.38;;;5.60;99.90;;;;;;4996344;28;20088;-94
2022/11/24 07:36:21;;;;;;;25.90;2.85;;;5.60;99.90;;;;;;4999691;28;20034;-93
2022/11/24 07:38:51;;;;;;;18.67;2.88;;;5.60;99.90;;;;;;4999627;28;20027;-95
2022/11/24 07:41:19;;;;;;;23.77;2.60;;;5.60;99.90;;;;;;4997688;28;20050;-93
2022/11/24 07:43:46;;;;;;;20.95;2.47;;;5.50;99.90;;;;;;5015011;28;20087;-92
2022/11/24 07:46:19;;;;;;;24.55;3.63;;;5.50;99.90;;;;;;5016430;28;20029;-95
2022/11/24 07:48:58;;;;;;;23.38;2.42;;;5.50;99.90;;;;;;4984975;28;20018;-94
2022/11/24 07:51:24;;;;;;;20.85;2.50;;;5.50;99.90;;;;;;4989251;28;20041;-95
2022/11/24 07:53:50;;;;;;;33.17;3.08;;;5.50;99.90;;;;;;4995999;28;20101;-94
2022/11/24 07:56:16;;;;;;;29.77;3.42;;;5.50;99.90;;;;;;4998485;28;20043;-92
2022/11/24 07:58:42;;;;;;;31.45;4.35;;;5.50;99.90;;;;;;4991465;28;20033;-93
2022/11/24 08:01:10;;;;;;;27.95;2.70;;;5.40;99.90;;;;;;4998930;28;20038;-95
2022/11/24 08:03:36;;;;;;;20.60;2.17;;;5.40;99.90;;;;;;4984282;28;20030;-94
2022/11/24 08:06:02;;;;;;;32.15;3.30;;;5.40;99.90;;;;;;4979559;28;20030;-93
2022/11/24 08:08:32;;;;;;;26.00;3.92;;;5.50;99.90;;;;;;4967795;28;20023;-95
2022/11/24 08:11:05;;;;;;;26.85;3.63;;;5.40;99.90;;;;;;4971092;28;20037;-95
2022/11/24 08:13:31;;;;;;;18.75;2.67;;;5.50;99.90;;;;;;4970325;28;20055;-94
2022/11/24 08:16:00;;;;;;;24.63;2.58;;;5.40;99.90;;;;;;4976270;28;20111;-94
2022/11/24 08:18:32;;;;;;;25.50;2.65;;;5.50;99.90;;;;;;4974605;28;20026;-94
2022/11/24 08:21:01;;;;;;;24.88;3.42;;;5.50;99.90;;;;;;4961536;28;20042;-95
2022/11/24 08:23:27;;;;;;;26.45;3.22;;;5.50;99.90;;;;;;4972664;28;20536;-94
2022/11/24 08:26:14;;;;;;;14.15;2.90;;;5.50;99.90;;;;;;4987733;28;20035;-94
2022/11/24 08:28:40;;;;;;;18.33;2.55;;;5.50;99.90;;;;;;4956800;28;20031;-96
2022/11/24 08:31:09;;;;;;;20.55;3.63;;;5.60;99.90;;;;;;4968173;28;20055;-92
2022/11/24 08:33:35;;;;;;;28.80;3.30;;;5.60;99.90;;;;;;4997828;28;20045;-95
2022/11/24 08:36:15;;;;;;;20.27;2.55;;;5.60;99.90;;;;;;4964797;28;20027;-94
2022/11/24 08:38:44;;;;;;;31.20;3.22;;;5.70;99.90;;;;;;4987051;28;20023;-95
2022/11/24 08:41:13;;;;;;;25.23;2.83;;;5.70;99.90;;;;;;4956873;28;20042;-95
2022/11/24 08:44:00;;;;;;;32.10;5.20;;;5.80;99.90;;;;;;4970636;28;20030;-94
2022/11/24 08:46:26;;;;;;;29.50;3.22;;;5.80;99.90;;;;;;4969936;28;20062;-94
2022/11/24 08:48:53;;;;;;;27.05;3.30;;;5.80;99.90;;;;;;4969477;28;20047;-93
2022/11/24 08:51:22;;;;;;;18.67;2.63;;;5.90;99.90;;;;;;4959475;28;20035;-93
2022/11/24 08:53:48;;;;;;;34.08;4.75;;;5.90;99.90;;;;;;4972283;28;20030;-93
2022/11/24 08:56:14;;;;;;;25.80;3.08;;;5.90;99.90;;;;;;4965893;28;20023;-95
2022/11/24 08:58:40;;;;;;;21.30;4.13;;;5.90;99.90;;;;;;4967573;28;20034;-96
2022/11/24 09:01:13;;;;;;;32.25;4.63;;;5.80;99.90;;;;;;4963416;28;20042;-93
2022/11/24 09:03:43;;;;;;;23.45;4.40;;;5.90;99.90;;;;;;4987382;28;20015;-94
2022/11/24 09:06:09;;;;;;;21.30;3.92;;;5.90;99.90;;;;;;4963311;28;20034;-93
2022/11/24 09:08:36;;;;;;;29.52;4.38;;;5.90;99.90;;;;;;4974265;28;20099;-94
2022/11/24 09:11:11;;;;;;;19.33;4.10;;;5.90;99.90;;;;;;4958671;28;20011;-94
2022/11/24 09:13:38;;;;;;;21.00;3.25;;;5.90;99.90;;;;;;4975574;28;20057;-95
2022/11/24 09:16:09;;;;;;;21.90;3.95;;;5.90;99.90;;;;;;4964439;28;20072;-94
2022/11/24 09:18:36;;;;;;;22.23;3.42;;;5.90;99.90;;;;;;4982416;28;20007;-94
2022/11/24 09:21:17;;;;;;;19.65;4.20;;;5.90;99.90;;;;;;4982855;28;20022;-94
2022/11/24 09:23:44;;;;;;;25.08;3.72;;;6.00;99.90;;;;;;4982734;28;20023;-94
2022/11/24 09:26:14;;;;;;;24.88;3.47;;;6.00;99.90;;;;;;4982738;28;20046;-91
2022/11/24 09:28:41;;;;;;;30.23;3.17;;;6.00;99.90;;;;;;4979589;28;20058;-91
2022/11/24 09:31:09;;;;;;;28.83;3.70;;;6.00;99.90;;;;;;4974020;28;20110;-95
2022/11/24 09:33:35;;;;;;;28.67;4.00;;;6.00;99.90;;;;;;4976268;28;20027;-94
2022/11/24 09:36:01;;;;;;;33.88;4.30;;;6.00;99.90;;;;;;4970039;28;20073;-93
2022/11/24 09:38:27;;;;;;;19.85;3.13;;;6.10;99.90;;;;;;4966901;28;20029;-93
2022/11/24 09:41:10;;;;;;;33.55;5.28;;;6.10;99.90;;;;;;4964988;28;20034;-95
2022/11/24 09:43:59;;;;;;;25.73;4.82;;;6.20;99.90;;;;;;4985589;28;20030;-93
2022/11/24 09:46:49;;;;;;;33.40;5.18;;;6.20;99.90;;;;;;4966828;28;20023;-94
2022/11/24 09:49:21;;;;;;;32.95;4.68;;;6.30;99.90;;;;;;4962409;28;20491;-94
2022/11/24 09:51:50;;;;;;;38.88;4.07;;;6.40;99.90;;;;;;4971331;28;20074;-94
2022/11/24 09:54:23;;;;;;;42.47;5.87;;;6.50;99.90;;;;;;4967161;28;20077;-94
2022/11/24 09:56:50;;;;;;;34.00;4.50;;;6.60;99.90;;;;;;4963645;28;20025;-95
2022/11/24 09:59:22;;;;;;;32.22;5.22;;;6.60;99.90;;;;;;4955429;29;20035;-93
2022/11/24 10:01:49;;;;;;;35.65;3.78;;;6.70;99.90;;;;;;4950290;28;20027;-94
2022/11/24 10:04:34;;;;;;;28.85;4.63;;;6.80;99.90;;;;;;4971427;28;20123;-94
2022/11/24 10:07:11;;;;;;;24.83;4.28;;;6.90;99.90;;;;;;4976716;28;20051;-95
2022/11/24 10:10:07;;;;;;;27.85;4.60;;;6.90;99.90;;;;;;4968176;28;20067;-93
2022/11/24 10:12:32;;;;;;;32.28;4.15;;;6.90;99.90;;;;;;4970718;28;20038;-95
2022/11/24 10:15:29;;;;;;;39.08;6.20;;;7.00;99.90;;;;;;4967998;28;20034;-92
2022/11/24 10:18:11;;;;;;;24.70;3.55;;;7.10;99.90;;;;;;4973244;28;20034;-95
2022/11/24 10:21:01;;;;;;;40.60;4.13;;;7.10;99.90;;;;;;4990279;28;20106;-94
2022/11/24 10:23:40;;;;;;;30.63;4.80;;;7.20;99.90;;;;;;4990806;28;20030;-95
2022/11/24 10:26:18;;;;;;;26.50;3.17;;;7.20;99.90;;;;;;4970782;28;20041;-93
2022/11/24 10:28:54;;;;;;;34.15;4.15;;;7.30;99.90;;;;;;4971593;28;20035;-94
2022/11/24 10:31:34;;;;;;;31.30;4.40;;;7.30;99.90;;;;;;4987952;28;20022;-92
2022/11/24 10:34:12;;;;;;;33.80;3.90;;;7.30;99.90;;;;;;4970799;28;20115;-91
2022/11/24 10:37:00;;;;;;;44.38;4.75;;;7.40;99.90;;;;;;4968506;28;20030;-94
2022/11/24 10:39:38;;;;;;;25.55;4.43;;;7.40;99.90;;;;;;4971722;28;20065;-94
2022/11/24 10:42:16;;;;;;;29.67;3.13;;;7.40;99.90;;;;;;4971299;28;20030;-93
2022/11/24 10:44:44;;;;;;;24.15;3.45;;;7.40;99.90;;;;;;4972184;28;20094;-95
2022/11/24 10:47:21;;;;;;;34.80;4.78;;;7.50;99.90;;;;;;4986287;28;20027;-92
2022/11/24 10:50:01;;;;;;;33.88;4.30;;;7.50;99.90;;;;;;4968038;28;20059;-94
2022/11/24 10:52:30;;;;;;;31.98;5.45;;;7.50;99.90;;;;;;4950631;28;20094;-95
2022/11/24 10:55:02;;;;;;;39.08;4.10;;;7.50;99.90;;;;;;4968143;28;20043;-93
2022/11/24 10:57:33;;;;;;;35.65;3.83;;;7.50;99.90;;;;;;4968328;28;20037;-93
2022/11/24 11:00:01;;;;;;;34.78;4.18;;;7.50;99.90;;;;;;4971479;28;20045;-93
2022/11/24 11:02:35;;;;;;;41.33;4.97;;;7.50;99.90;;;;;;4974641;28;20118;-93
2022/11/24 11:05:25;;;;;;;28.85;4.57;;;7.50;99.90;;;;;;4955582;28;20697;-94
2022/11/24 11:08:22;;;;;;;33.35;3.72;;;7.60;99.90;;;;;;4986036;28;20105;-94
2022/11/24 11:11:27;;;;;;;31.05;3.40;;;7.60;99.90;;;;;;4988021;28;20030;-92
2022/11/24 11:14:00;;;;;;;32.63;4.47;;;7.60;99.90;;;;;;4991657;28;20033;-93
2022/11/24 11:16:40;;;;;;;26.33;5.00;;;7.70;99.90;;;;;;4990443;28;20097;-93
2022/11/24 11:19:25;;;;;;;44.90;4.93;;;7.70;99.90;;;;;;4988297;28;20037;-93
2022/11/24 11:22:10;;;;;;;32.05;5.30;;;7.70;99.90;;;;;;4991958;28;20061;-94
2022/11/24 11:24:41;;;;;;;29.33;4.03;;;7.80;99.90;;;;;;4992681;28;20022;-94
2022/11/24 11:27:17;;;;;;;36.15;4.00;;;7.80;99.90;;;;;;4992396;28;20026;-93
2022/11/24 11:29:42;;;;;;;26.02;3.30;;;7.80;99.90;;;;;;4987463;28;20125;-91
2022/11/24 11:32:19;;;;;;;36.00;4.15;;;7.80;99.90;;;;;;4986424;28;20492;-93
2022/11/24 11:34:45;;;;;;;33.20;5.22;;;7.80;99.90;;;;;;4987594;28;20018;-93
2022/11/24 11:37:13;;;;;;;32.53;5.35;;;7.80;99.90;;;;;;5005810;28;20010;-95
2022/11/24 11:39:46;;;;;;;34.08;5.18;;;7.80;99.90;;;;;;4986509;28;20068;-94
2022/11/24 11:42:22;;;;;;;35.40;3.90;;;7.80;99.90;;;;;;4987426;28;20026;-96
2022/11/24 11:45:10;;;;;;;42.05;4.45;;;7.80;99.90;;;;;;4986734;28;20029;-93
2022/11/24 11:48:02;;;;;;;30.33;4.22;;;7.80;99.90;;;;;;4983835;28;20022;-94
2022/11/24 11:50:42;;;;;;;26.23;4.22;;;7.80;99.90;;;;;;4983389;28;20034;-95
2022/11/24 11:53:23;;;;;;;33.33;3.43;;;7.80;99.90;;;;;;4980003;28;20500;-93
2022/11/24 11:56:16;;;;;;;32.97;4.55;;;7.90;99.90;;;;;;4975248;28;20089;-93
2022/11/24 11:59:06;;;;;;;33.22;4.18;;;7.90;99.90;;;;;;4979589;28;20029;-93
2022/11/24 12:01:57;;;;;;;32.30;4.43;;;8.00;99.90;;;;;;4979796;28;20041;-95
2022/11/24 12:04:54;;;;;;;30.65;3.85;;;8.00;99.90;;;;;;4979745;28;20487;-93
2022/11/24 12:07:37;;;;;;;21.58;3.08;;;8.10;99.90;;;;;;4964876;28;20114;-95
2022/11/24 12:10:11;;;;;;;32.70;4.20;;;8.10;99.90;;;;;;4974628;28;20035;-94
2022/11/24 12:13:16;;;;;;;33.50;4.13;;;8.20;99.90;;;;;;4967980;28;20034;-95
2022/11/24 12:15:44;;;;;;;29.38;4.15;;;8.20;99.90;;;;;;4926482;29;20028;-96
2022/11/24 12:18:31;;;;;;;29.75;4.30;;;8.20;99.90;;;;;;4909073;29;20036;-95
2022/11/24 12:21:16;;;;;;;32.35;4.88;;;8.20;99.90;;;;;;4919843;29;20043;-94
2022/11/24 12:23:54;;;;;;;30.95;4.40;;;8.30;99.90;;;;;;4920752;29;20070;-94
2022/11/24 12:26:40;;;;;;;29.27;4.13;;;8.30;99.90;;;;;;4920392;29;20091;-94
2022/11/24 12:29:43;;;;;;;27.38;3.75;;;8.30;99.90;;;;;;4912733;29;20082;-94
2022/11/24 12:32:32;;;;;;;32.53;4.57;;;8.40;99.90;;;;;;4918224;29;20063;-95
2022/11/24 12:35:05;;;;;;;26.98;4.10;;;8.40;99.90;;;;;;4919196;29;20032;-93
2022/11/24 12:37:33;;;;;;;30.83;4.15;;;8.40;99.90;;;;;;4917934;29;20036;-95
2022/11/24 12:40:02;;;;;;;39.95;6.00;;;8.50;99.90;;;;;;4916582;29;20167;-93
2022/11/24 12:43:14;;;;;;;40.40;4.32;;;8.50;99.90;;;;;;4918424;29;20032;-95
2022/11/24 12:46:06;;;;;;;31.25;3.83;;;8.50;99.90;;;;;;4844348;29;20034;-94
2022/11/24 12:48:59;;;;;;;29.92;3.17;;;8.60;99.90;;;;;;4843904;29;20038;-94
2022/11/24 12:51:32;;;;;;;37.45;4.75;;;8.60;99.90;;;;;;4852316;29;20124;-92
2022/11/24 12:54:01;;;;;;;34.80;4.25;;;8.70;99.90;;;;;;4867498;29;20353;-93
2022/11/24 12:57:00;;;;;;;40.85;6.55;;;8.70;99.90;;;;;;4871400;29;20072;-96
2022/11/24 12:59:46;;;;;;;36.53;5.45;;;8.80;99.90;;;;;;4864591;29;20119;-95
2022/11/24 13:02:38;;;;;;;30.80;3.80;;;8.80;99.90;;;;;;4877173;29;20041;-93
2022/11/24 13:05:31;;;;;;;33.90;4.00;;;8.80;99.90;;;;;;4861866;29;20029;-93
2022/11/24 13:08:00;;;;;;;24.58;3.33;;;8.90;99.90;;;;;;4865493;29;20053;-93
2022/11/24 13:10:32;;;;;;;35.45;5.18;;;9.00;99.90;;;;;;4861752;29;20064;-92